ADDS METAR Data INFO
IDs: Format: Raw Decoded Include TAF

Data at: 1526 UTC 22 Jun 2018

METAR for:KSFO (San Francisco Intl, CA, US)
Text:KSFO 221456Z 30005KT 10SM FEW008 FEW200 16/10 A2997 RMK AO2 SLP147 T01610100 53005 $
Temperature: 16.1°C ( 61°F)
Dewpoint: 10.0°C ( 50°F) [RH = 67%]
Pressure (altimeter):29.97 inches Hg (1015.0 mb) [Sea level pressure: 1014.7 mb]
Winds:from the WNW (300 degrees) at 6 MPH (5 knots; 2.6 m/s)
Visibility:10 or more sm (16+ km)
Ceiling:at least 12,000 feet AGL
Clouds: few clouds at 800 feet AGL, few clouds at 20000 feet AGL
QC Flag:SOME DATA ABOVE MAY BE INACCURATE!!!"$" is an indication the sensor requires maintenance.
Text:KSFO 221356Z 29007KT 10SM FEW008 FEW200 14/10 A2996 RMK AO2 SLP145 T01440100 $
Temperature: 14.4°C ( 58°F)
Dewpoint: 10.0°C ( 50°F) [RH = 75%]
Pressure (altimeter):29.96 inches Hg (1014.6 mb) [Sea level pressure: 1014.5 mb]
Winds:from the WNW (290 degrees) at 8 MPH (7 knots; 3.6 m/s)
Visibility:10 or more sm (16+ km)
Ceiling:at least 12,000 feet AGL
Clouds: few clouds at 800 feet AGL, few clouds at 20000 feet AGL
QC Flag:SOME DATA ABOVE MAY BE INACCURATE!!!"$" is an indication the sensor requires maintenance.
Text:KSFO 221256Z 29007KT 10SM FEW008 13/09 A2995 RMK AO2 SLP141 T01330094 $
Temperature: 13.3°C ( 56°F)
Dewpoint: 9.4°C ( 49°F) [RH = 77%]
Pressure (altimeter):29.95 inches Hg (1014.3 mb) [Sea level pressure: 1014.1 mb]
Winds:from the WNW (290 degrees) at 8 MPH (7 knots; 3.6 m/s)
Visibility:10 or more sm (16+ km)
Ceiling:at least 12,000 feet AGL
Clouds: few clouds at 800 feet AGL
QC Flag:SOME DATA ABOVE MAY BE INACCURATE!!!"$" is an indication the sensor requires maintenance.
Text:KSFO 221156Z 29009KT 10SM FEW010 14/09 A2995 RMK AO2 SLP142 T01390094 10150 20133 58001 $
Temperature: 13.9°C ( 57°F)
Dewpoint: 9.4°C ( 49°F) [RH = 74%]
Pressure (altimeter):29.95 inches Hg (1014.3 mb) [Sea level pressure: 1014.2 mb]
Winds:from the WNW (290 degrees) at 10 MPH (9 knots; 4.6 m/s)
Visibility:10 or more sm (16+ km)
Ceiling:at least 12,000 feet AGL
Clouds: few clouds at 1000 feet AGL
QC Flag:SOME DATA ABOVE MAY BE INACCURATE!!!"$" is an indication the sensor requires maintenance.
Text:KSFO 221056Z 30007KT 10SM FEW200 14/09 A2996 RMK AO2 SLP144 T01390094 $
Temperature: 13.9°C ( 57°F)
Dewpoint: 9.4°C ( 49°F) [RH = 74%]
Pressure (altimeter):29.96 inches Hg (1014.6 mb) [Sea level pressure: 1014.4 mb]
Winds:from the WNW (300 degrees) at 8 MPH (7 knots; 3.6 m/s)
Visibility:10 or more sm (16+ km)
Ceiling:at least 12,000 feet AGL
Clouds: few clouds at 20000 feet AGL
QC Flag:SOME DATA ABOVE MAY BE INACCURATE!!!"$" is an indication the sensor requires maintenance.
Text:KSFO 220956Z 29009KT 10SM FEW200 13/09 A2996 RMK AO2 SLP144 T01330094 $
Temperature: 13.3°C ( 56°F)
Dewpoint: 9.4°C ( 49°F) [RH = 77%]
Pressure (altimeter):29.96 inches Hg (1014.6 mb) [Sea level pressure: 1014.4 mb]
Winds:from the WNW (290 degrees) at 10 MPH (9 knots; 4.6 m/s)
Visibility:10 or more sm (16+ km)
Ceiling:at least 12,000 feet AGL
Clouds: few clouds at 20000 feet AGL
QC Flag:SOME DATA ABOVE MAY BE INACCURATE!!!"$" is an indication the sensor requires maintenance.
Text:KSFO 220856Z 29009KT 10SM FEW200 13/09 A2995 RMK AO2 SLP143 T01330094 58006 $
Temperature: 13.3°C ( 56°F)
Dewpoint: 9.4°C ( 49°F) [RH = 77%]
Pressure (altimeter):29.95 inches Hg (1014.3 mb) [Sea level pressure: 1014.3 mb]
Winds:from the WNW (290 degrees) at 10 MPH (9 knots; 4.6 m/s)
Visibility:10 or more sm (16+ km)
Ceiling:at least 12,000 feet AGL
Clouds: few clouds at 20000 feet AGL
QC Flag:SOME DATA ABOVE MAY BE INACCURATE!!!"$" is an indication the sensor requires maintenance.
Text:KSFO 220756Z 29012KT 10SM FEW013 14/10 A2996 RMK AO2 SLP145 T01390100 402060122 $
Temperature: 13.9°C ( 57°F)
Dewpoint: 10.0°C ( 50°F) [RH = 77%]
Pressure (altimeter):29.96 inches Hg (1014.6 mb) [Sea level pressure: 1014.5 mb]
Winds:from the WNW (290 degrees) at 14 MPH (12 knots; 6.2 m/s)
Visibility:10 or more sm (16+ km)
Ceiling:at least 12,000 feet AGL
Clouds: few clouds at 1300 feet AGL
QC Flag:SOME DATA ABOVE MAY BE INACCURATE!!!"$" is an indication the sensor requires maintenance.
Text:KSFO 220656Z 29014KT 10SM FEW025 14/10 A2997 RMK AO2 SLP148 T01440100
Temperature: 14.4°C ( 58°F)
Dewpoint: 10.0°C ( 50°F) [RH = 75%]
Pressure (altimeter):29.97 inches Hg (1015.0 mb) [Sea level pressure: 1014.8 mb]
Winds:from the WNW (290 degrees) at 16 MPH (14 knots; 7.2 m/s)
Visibility:10 or more sm (16+ km)
Ceiling:at least 12,000 feet AGL
Clouds: few clouds at 2500 feet AGL
Text:KSFO 220556Z 29016KT 10SM FEW011 15/10 A2997 RMK AO2 SLP149 T01500100 10194 20150 50003
Temperature: 15.0°C ( 59°F)
Dewpoint: 10.0°C ( 50°F) [RH = 72%]
Pressure (altimeter):29.97 inches Hg (1015.0 mb) [Sea level pressure: 1014.9 mb]
Winds:from the WNW (290 degrees) at 18 MPH (16 knots; 8.2 m/s)
Visibility:10 or more sm (16+ km)
Ceiling:at least 12,000 feet AGL
Clouds: few clouds at 1100 feet AGL
Text:KSFO 220456Z 29017KT 10SM FEW013 15/10 A2997 RMK AO2 SLP150 T01500100
Temperature: 15.0°C ( 59°F)
Dewpoint: 10.0°C ( 50°F) [RH = 72%]
Pressure (altimeter):29.97 inches Hg (1015.0 mb) [Sea level pressure: 1015.0 mb]
Winds:from the WNW (290 degrees) at 20 MPH (17 knots; 8.7 m/s)
Visibility:10 or more sm (16+ km)
Ceiling:at least 12,000 feet AGL
Clouds: few clouds at 1300 feet AGL
Text:KSFO 220356Z 29016KT 10SM FEW013 FEW150 16/09 A2996 RMK AO2 SLP145 T01560094
Temperature: 15.6°C ( 60°F)
Dewpoint: 9.4°C ( 49°F) [RH = 67%]
Pressure (altimeter):29.96 inches Hg (1014.6 mb) [Sea level pressure: 1014.5 mb]
Winds:from the WNW (290 degrees) at 18 MPH (16 knots; 8.2 m/s)
Visibility:10 or more sm (16+ km)
Ceiling:at least 12,000 feet AGL
Clouds: few clouds at 1300 feet AGL, few clouds at 15000 feet AGL